createdAt,value
2023-04-22T00:01:42.973Z,0.00
2023-04-22T00:03:43.479Z,0.00
2023-04-22T00:04:42.834Z,0.00
2023-04-22T00:05:42.533Z,0.00
2023-04-22T00:08:42.202Z,0.00
2023-04-22T00:10:42.967Z,0.00
2023-04-22T00:11:42.171Z,0.00
2023-04-22T00:12:41.919Z,0.00
2023-04-22T00:13:41.802Z,0.00
2023-04-22T00:15:42.099Z,0.00
2023-04-22T00:16:41.682Z,0.00
2023-04-22T00:17:41.478Z,0.00
2023-04-22T00:18:41.610Z,0.00
2023-04-22T00:20:41.444Z,0.00
2023-04-22T00:21:41.764Z,0.00
2023-04-22T00:22:41.092Z,0.00
2023-04-22T00:27:41.319Z,0.00
2023-04-22T00:29:41.062Z,0.00
2023-04-22T00:31:41.113Z,0.00
2023-04-22T00:32:40.711Z,0.00
2023-04-22T00:33:40.505Z,0.00
2023-04-22T00:35:40.995Z,0.00
2023-04-22T00:37:39.889Z,0.00
2023-04-22T00:38:39.797Z,0.00
2023-04-22T00:39:40.225Z,0.00
2023-04-22T00:40:39.635Z,0.00
2023-04-22T00:42:39.480Z,0.00
2023-04-22T00:43:40.336Z,0.00
2023-04-22T00:46:39.629Z,0.00
2023-04-22T00:48:39.400Z,0.00
2023-04-22T00:49:39.073Z,0.00
2023-04-22T00:50:38.833Z,0.00
2023-04-22T00:51:38.750Z,0.00
2023-04-22T00:54:39.323Z,0.00
2023-04-22T00:55:38.457Z,0.00
2023-04-22T00:56:38.350Z,0.00
2023-04-22T00:58:38.794Z,0.00
2023-04-22T00:59:39.046Z,0.00
2023-04-22T01:00:38.471Z,0.00
2023-04-22T01:02:38.823Z,0.00
2023-04-22T01:03:38.048Z,0.00
2023-04-22T01:05:37.642Z,0.00
2023-04-22T01:06:38.167Z,0.00
2023-04-22T01:07:37.676Z,0.00
2023-04-22T01:09:37.738Z,0.00
2023-04-22T01:10:37.541Z,0.00
2023-04-22T01:12:37.481Z,0.00
2023-04-22T01:13:36.988Z,0.00
2023-04-22T01:14:36.913Z,0.00
2023-04-22T01:16:36.766Z,0.00
2023-04-22T01:17:37.564Z,0.00
2023-04-22T01:18:37.109Z,0.00
2023-04-22T01:19:38.248Z,0.00
2023-04-22T01:21:36.351Z,0.00
2023-04-22T01:22:36.274Z,0.00
2023-04-22T01:24:36.105Z,0.00
2023-04-22T01:25:36.033Z,0.00
2023-04-22T01:27:36.083Z,0.00
2023-04-22T01:28:35.994Z,0.00
2023-04-22T01:30:35.638Z,0.00
2023-04-22T01:31:35.585Z,0.00
2023-04-22T01:32:35.891Z,0.00
2023-04-22T01:33:35.608Z,0.00
2023-04-22T01:35:35.639Z,0.00
2023-04-22T01:36:35.158Z,0.00
2023-04-22T01:38:35.509Z,0.00
2023-04-22T01:39:36.652Z,0.00
2023-04-22T01:42:34.973Z,0.00
2023-04-22T01:46:34.435Z,0.00
2023-04-22T01:47:34.484Z,0.00
2023-04-22T01:48:34.223Z,0.00
2023-04-22T01:49:34.115Z,0.00
2023-04-22T01:50:34.037Z,0.00
2023-04-22T01:52:34.176Z,0.00
2023-04-22T01:53:33.844Z,0.00
2023-04-22T01:55:34.508Z,0.00
2023-04-22T01:56:33.763Z,0.00
2023-04-22T01:58:33.800Z,0.00
2023-04-22T02:04:32.957Z,0.00
2023-04-22T02:05:33.035Z,0.00
2023-04-22T02:06:32.751Z,0.00
2023-04-22T02:09:32.512Z,0.00
2023-04-22T02:10:33.349Z,0.00
2023-04-22T02:11:32.862Z,0.00
2023-04-22T02:12:32.630Z,0.00
2023-04-22T02:13:32.194Z,0.00
2023-04-22T02:14:32.116Z,0.00
2023-04-22T02:15:32.085Z,0.00
2023-04-22T02:16:32.021Z,0.00
2023-04-22T02:20:31.933Z,0.00
2023-04-22T02:21:31.549Z,0.00
2023-04-22T02:23:31.604Z,0.00
2023-04-22T02:24:31.305Z,0.00
2023-04-22T02:25:31.229Z,0.00
2023-04-22T02:28:30.995Z,0.00
2023-04-22T02:30:30.832Z,0.00
2023-04-22T02:31:30.967Z,0.00
2023-04-22T02:32:30.688Z,0.00
2023-04-22T02:34:30.710Z,0.00
2023-04-22T02:36:30.532Z,0.00
2023-04-22T02:37:30.669Z,0.00
2023-04-22T02:39:30.560Z,0.00
2023-04-22T02:40:30.228Z,0.00
2023-04-22T02:41:29.947Z,0.00
2023-04-22T02:42:29.879Z,0.00
2023-04-22T02:44:29.723Z,0.00
2023-04-22T02:48:29.605Z,0.00
2023-04-22T02:53:28.989Z,0.00
2023-04-22T02:54:29.820Z,0.00
2023-04-22T02:56:28.745Z,0.00
2023-04-22T02:57:28.664Z,0.00
2023-04-22T02:58:29.294Z,0.00
2023-04-22T02:59:28.758Z,0.00
2023-04-22T03:00:29.073Z,0.00
2023-04-22T03:02:28.744Z,0.00
2023-04-22T03:04:28.865Z,0.00
2023-04-22T03:05:28.997Z,0.00
2023-04-22T03:07:27.870Z,0.00
2023-04-22T03:11:28.259Z,0.00
2023-04-22T03:12:27.871Z,0.00
2023-04-22T03:13:27.635Z,0.00
2023-04-22T03:15:27.389Z,0.00
2023-04-22T03:17:27.795Z,0.00
2023-04-22T03:20:27.079Z,0.00
2023-04-22T03:21:27.460Z,0.00
2023-04-22T03:24:26.552Z,0.00
2023-04-22T03:25:26.487Z,0.00
2023-04-22T03:27:26.978Z,0.00
2023-04-22T03:34:26.006Z,0.00
2023-04-22T03:35:25.638Z,0.00
2023-04-22T03:36:26.353Z,0.00
2023-04-22T03:38:25.393Z,0.00
2023-04-22T03:39:25.665Z,0.00
2023-04-22T03:42:25.677Z,0.00
2023-04-22T03:43:25.703Z,0.00
2023-04-22T03:44:25.309Z,0.00
2023-04-22T03:47:24.727Z,0.00
2023-04-22T03:50:24.427Z,0.00
2023-04-22T03:51:24.553Z,0.00
2023-04-22T03:53:24.490Z,4.00
2023-04-22T03:54:24.108Z,4.00
2023-04-22T03:55:24.032Z,0.00
2023-04-22T03:56:24.719Z,0.00
2023-04-22T03:57:23.865Z,4.00
2023-04-22T03:58:23.796Z,4.00
2023-04-22T03:59:23.709Z,4.00
2023-04-22T04:04:23.888Z,12.00
2023-04-22T04:07:23.572Z,16.00
2023-04-22T04:11:23.058Z,28.00
2023-04-22T04:13:23.030Z,36.00
2023-04-22T04:14:23.309Z,40.00
2023-04-22T04:21:22.649Z,80.00
2023-04-22T04:25:14.053Z,104.00
2023-04-22T04:26:15.224Z,112.00
2023-04-22T04:27:13.785Z,120.00
2023-04-22T04:30:14.805Z,144.00
2023-04-22T04:31:13.411Z,152.00
2023-04-22T04:32:13.327Z,160.00
2023-04-22T04:33:13.350Z,168.00
2023-04-22T04:35:14.618Z,188.00
2023-04-22T04:38:13.301Z,224.00
2023-04-22T04:39:12.766Z,240.00
2023-04-22T04:41:12.749Z,256.00
2023-04-22T04:42:12.477Z,260.00
2023-04-22T04:43:12.399Z,272.00
2023-04-22T04:44:12.406Z,280.00
2023-04-22T05:26:09.814Z,1120.00
2023-04-22T06:26:11.160Z,1944.00
2023-04-22T06:28:04.692Z,1948.00
2023-04-22T06:29:04.752Z,1968.00
2023-04-22T06:31:03.824Z,1928.00
2023-04-22T06:38:03.235Z,1632.00
2023-04-22T06:43:03.560Z,1508.00
2023-04-22T06:44:02.764Z,1484.00
2023-04-22T06:45:03.196Z,1476.00
2023-04-22T06:47:02.570Z,1508.00
2023-04-22T06:49:04.913Z,1496.00
2023-04-22T06:50:04.825Z,1484.00
2023-04-22T06:51:04.750Z,1504.00
2023-04-22T06:52:04.664Z,1548.00
2023-04-22T06:53:04.591Z,1580.00
2023-04-22T06:54:05.318Z,1608.00
2023-04-22T06:55:04.430Z,1648.00
2023-04-22T06:56:04.458Z,1708.00
2023-04-22T06:57:04.278Z,1748.00
2023-04-22T06:58:04.219Z,1824.00
2023-04-22T06:59:04.116Z,1788.00
2023-04-22T07:00:04.091Z,1852.00
2023-04-22T07:01:03.960Z,1944.00
2023-04-22T07:02:04.010Z,1948.00
2023-04-22T07:03:06.550Z,2040.00
2023-04-22T07:04:03.757Z,2056.00
2023-04-22T07:05:03.655Z,2164.00
2023-04-22T07:06:03.566Z,2264.00
2023-04-22T07:07:03.502Z,2304.00
2023-04-22T07:08:03.409Z,2304.00
2023-04-22T07:09:04.347Z,2220.00
2023-04-22T07:10:03.257Z,2280.00
2023-04-22T07:11:03.182Z,2264.00
2023-04-22T07:12:03.095Z,2264.00
2023-04-22T07:13:03.064Z,2336.00
2023-04-22T07:14:03.165Z,2368.00
2023-04-22T07:16:03.457Z,2492.00
2023-04-22T07:17:02.769Z,2508.00
2023-04-22T07:18:02.876Z,2448.00
2023-04-22T07:19:02.794Z,2404.00
2023-04-22T07:20:02.719Z,2440.00
2023-04-22T07:21:02.659Z,2468.00
2023-04-22T07:22:02.532Z,2520.00
2023-04-22T07:23:54.888Z,2648.00
2023-04-22T07:24:54.656Z,2672.00
2023-04-22T07:25:54.585Z,2620.00
2023-04-22T07:26:54.719Z,2776.00
2023-04-22T07:27:54.436Z,2980.00
2023-04-22T07:28:54.560Z,3040.00
2023-04-22T07:39:17.630Z,3808.00
2023-04-22T07:40:17.478Z,4076.00
2023-04-22T07:41:17.708Z,4208.00
2023-04-22T07:42:17.321Z,4320.00
2023-04-22T07:43:17.251Z,4428.00
2023-04-22T07:44:17.162Z,4520.00
2023-04-22T07:45:17.090Z,4448.00
2023-04-22T07:46:17.129Z,4248.00
2023-04-22T07:47:16.939Z,4072.00
2023-04-22T07:48:16.864Z,4020.00
2023-04-22T07:49:16.798Z,3968.00
2023-04-22T07:50:16.714Z,3820.00
2023-04-22T07:51:16.650Z,3780.00
2023-04-22T07:52:16.556Z,3696.00
2023-04-22T07:53:16.484Z,3592.00
2023-04-22T07:54:16.410Z,3644.00
2023-04-22T07:55:16.361Z,3836.00
2023-04-22T07:56:16.265Z,3988.00
2023-04-22T07:57:16.376Z,4140.00
2023-04-22T07:58:16.101Z,4172.00
2023-04-22T07:59:16.027Z,4356.00
2023-04-22T08:00:16.009Z,4440.00
2023-04-22T08:01:17.327Z,4576.00
2023-04-22T08:02:15.860Z,4588.00
2023-04-22T08:03:15.871Z,4588.00
2023-04-22T08:04:15.965Z,4672.00
2023-04-22T08:05:15.644Z,4680.00
2023-04-22T08:06:15.498Z,4488.00
2023-04-22T08:07:30.896Z,4324.00
2023-04-22T08:08:15.351Z,4228.00
2023-04-22T08:09:15.381Z,4248.00
2023-04-22T08:10:15.213Z,4360.00
2023-04-22T08:11:15.147Z,4388.00
2023-04-22T08:12:15.050Z,4512.00
2023-04-22T08:13:16.463Z,4740.00
2023-04-22T08:14:14.902Z,4868.00
2023-04-22T08:15:14.826Z,4796.00
2023-04-22T08:16:14.804Z,4780.00
2023-04-22T08:17:14.780Z,4812.00
2023-04-22T08:18:14.608Z,4848.00
2023-04-22T08:19:14.531Z,4812.00
2023-04-22T08:20:14.457Z,4836.00
2023-04-22T08:21:14.381Z,4824.00
2023-04-22T08:22:14.320Z,4812.00
2023-04-22T08:23:14.225Z,4756.00
2023-04-22T08:24:14.180Z,4676.00
2023-04-22T08:25:14.083Z,4540.00
2023-04-22T08:26:14.009Z,4416.00
2023-04-22T08:27:13.952Z,4256.00
2023-04-22T08:28:13.856Z,4228.00
2023-04-22T08:29:13.779Z,4132.00
2023-04-22T08:30:13.702Z,4028.00
2023-04-22T08:31:13.693Z,4000.00
2023-04-22T08:32:13.587Z,4052.00
2023-04-22T08:33:13.479Z,4076.00
2023-04-22T08:34:13.406Z,4184.00
2023-04-22T08:35:13.330Z,4228.00
2023-04-22T08:36:13.255Z,4380.00
2023-04-22T08:37:13.184Z,4480.00
2023-04-22T08:38:13.113Z,4628.00
2023-04-22T08:39:13.334Z,4708.00
2023-04-22T08:40:12.955Z,4748.00
2023-04-22T08:45:13.326Z,4628.00
2023-04-22T08:46:13.575Z,4776.00
2023-04-22T08:47:12.503Z,4880.00
2023-04-22T08:48:12.372Z,4988.00
2023-04-22T08:49:12.300Z,5172.00
2023-04-22T08:50:12.214Z,5396.00
2023-04-22T08:51:12.149Z,5580.00
2023-04-22T08:52:12.065Z,5716.00
2023-04-22T08:53:11.994Z,5864.00
2023-04-22T08:54:11.918Z,6020.00
2023-04-22T08:55:11.842Z,6172.00
2023-04-22T08:56:12.121Z,6360.00
2023-04-22T08:57:11.748Z,6628.00
2023-04-22T08:58:11.623Z,6916.00
2023-04-22T08:59:11.558Z,7276.00
2023-04-22T09:00:11.774Z,7672.00
2023-04-22T09:01:11.455Z,7852.00
2023-04-22T09:02:11.354Z,8028.00
2023-04-22T09:03:11.364Z,8060.00
2023-04-22T09:04:11.377Z,8072.00
2023-04-22T09:05:11.108Z,8008.00
2023-04-22T09:06:11.030Z,8004.00
2023-04-22T09:07:10.958Z,8036.00
2023-04-22T09:08:10.885Z,8012.00
2023-04-22T09:09:12.132Z,8144.00
2023-04-22T09:11:11.419Z,8300.00
2023-04-22T09:12:10.690Z,8444.00
2023-04-22T09:13:10.556Z,8564.00
2023-04-22T09:14:10.593Z,8628.00
2023-04-22T09:15:10.375Z,8580.00
2023-04-22T09:16:10.329Z,8540.00
2023-04-22T09:17:10.544Z,8436.00
2023-04-22T09:18:10.177Z,8320.00
2023-04-22T09:19:10.076Z,8304.00
2023-04-22T09:20:10.013Z,8092.00
2023-04-22T09:21:09.944Z,7904.00
2023-04-22T09:22:09.857Z,7640.00
2023-04-22T09:23:09.788Z,7348.00
2023-04-22T09:24:09.720Z,7044.00
2023-04-22T09:25:09.643Z,6668.00
2023-04-22T09:26:09.772Z,6296.00
2023-04-22T09:27:09.502Z,5944.00
2023-04-22T09:28:09.450Z,5748.00
2023-04-22T09:29:09.405Z,5656.00
2023-04-22T09:30:09.277Z,5704.00
2023-04-22T09:31:09.206Z,5768.00
2023-04-22T09:32:09.258Z,5936.00
2023-04-22T09:33:09.186Z,6212.00
2023-04-22T09:34:08.984Z,6464.00
2023-04-22T09:35:08.918Z,6676.00
2023-04-22T09:36:08.848Z,6760.00
2023-04-22T09:37:08.768Z,6800.00
2023-04-22T09:38:08.822Z,6792.00
2023-04-22T09:39:08.637Z,6868.00
2023-04-22T09:40:08.549Z,7040.00
2023-04-22T09:41:08.474Z,7296.00
2023-04-22T09:42:08.502Z,7620.00
2023-04-22T09:43:08.341Z,8112.00
2023-04-22T09:44:08.358Z,8736.00
2023-04-22T09:45:08.189Z,9400.00
2023-04-22T09:46:08.168Z,9948.00
2023-04-22T09:47:08.068Z,10280.00
2023-04-22T09:48:07.980Z,10316.00
2023-04-22T09:49:07.921Z,10108.00
2023-04-22T09:50:07.824Z,9964.00
2023-04-22T09:51:07.751Z,9820.00
2023-04-22T09:52:07.679Z,9832.00
2023-04-22T09:53:07.606Z,9848.00
2023-04-22T09:54:07.537Z,9996.00
2023-04-22T09:55:07.470Z,9960.00
2023-04-22T09:56:07.387Z,9892.00
2023-04-22T09:57:08.938Z,9780.00
2023-04-22T09:58:07.261Z,9640.00
2023-04-22T09:59:07.174Z,9496.00
2023-04-22T10:00:07.097Z,9392.00
2023-04-22T10:01:07.053Z,9284.00
2023-04-22T10:02:07.041Z,9216.00
2023-04-22T10:03:09.734Z,9180.00
2023-04-22T10:04:06.872Z,9008.00
2023-04-22T10:05:06.814Z,8924.00
2023-04-22T10:06:06.665Z,8840.00
2023-04-22T10:07:06.694Z,8788.00
2023-04-22T10:08:06.560Z,8576.00
2023-04-22T10:09:08.272Z,8180.00
2023-04-22T10:10:06.382Z,7544.00
2023-04-22T10:11:06.308Z,6840.00
2023-04-22T10:12:06.233Z,6208.00
2023-04-22T10:13:06.165Z,5788.00
2023-04-22T10:14:06.086Z,5596.00
2023-04-22T10:15:06.020Z,5488.00
2023-04-22T10:16:05.945Z,5432.00
2023-04-22T10:17:05.903Z,5380.00
2023-04-22T10:18:06.000Z,5308.00
2023-04-22T10:19:05.779Z,5328.00
2023-04-22T10:20:05.666Z,5328.00
2023-04-22T10:21:05.998Z,5356.00
2023-04-22T10:22:05.506Z,5292.00
2023-04-22T10:23:05.441Z,5228.00
2023-04-22T10:24:05.361Z,5212.00
2023-04-22T10:25:05.291Z,5140.00
2023-04-22T10:26:05.217Z,5180.00
2023-04-22T10:27:05.147Z,5204.00
2023-04-22T10:28:05.073Z,5240.00
2023-04-22T10:29:04.999Z,5276.00
2023-04-22T10:30:04.929Z,5376.00
2023-04-22T10:31:04.945Z,5500.00
2023-04-22T10:32:04.776Z,5596.00
2023-04-22T10:33:04.904Z,5720.00
2023-04-22T10:34:04.639Z,5672.00
2023-04-22T10:35:04.596Z,5760.00
2023-04-22T10:36:04.502Z,5896.00
2023-04-22T10:37:04.433Z,6068.00
2023-04-22T10:38:04.345Z,5980.00
2023-04-22T10:39:04.269Z,6600.00
2023-04-22T10:40:04.197Z,11200.00
2023-04-22T10:41:04.120Z,7440.00
2023-04-22T10:42:04.054Z,7888.00
2023-04-22T10:43:03.980Z,9072.00
2023-04-22T10:44:03.904Z,16408.00
2023-04-22T10:45:03.849Z,11404.00
2023-04-22T10:46:03.765Z,14960.00
2023-04-22T10:47:03.736Z,16228.00
2023-04-22T10:48:03.666Z,11860.00
2023-04-22T10:49:05.621Z,12000.00
2023-04-22T10:50:03.468Z,10576.00
2023-04-22T10:51:03.399Z,8904.00
2023-04-22T10:52:03.322Z,11884.00
2023-04-22T10:53:03.281Z,21920.00
2023-04-22T10:54:03.180Z,27424.00
2023-04-22T10:55:03.335Z,30752.00
2023-04-22T10:56:03.039Z,17792.00
2023-04-22T10:57:02.985Z,15488.00
2023-04-22T11:14:13.915Z,13636.00
2023-04-22T11:15:13.811Z,25760.00
2023-04-22T11:16:13.778Z,28672.00
2023-04-22T11:17:13.671Z,31200.00
2023-04-22T11:18:14.311Z,23552.00
2023-04-22T11:19:13.578Z,16544.00
2023-04-22T11:20:13.457Z,17888.00
2023-04-22T11:21:13.397Z,27264.00
2023-04-22T11:22:13.321Z,21792.00
2023-04-22T11:23:13.266Z,20096.00
2023-04-22T11:24:13.175Z,28032.00
2023-04-22T11:25:13.100Z,24128.00
2023-04-22T11:26:13.046Z,25984.00
2023-04-22T11:27:12.971Z,24192.00
2023-04-22T11:28:12.896Z,23744.00
2023-04-22T11:29:12.828Z,15296.00
2023-04-22T11:33:08.453Z,27360.00
2023-04-22T11:34:08.561Z,42976.00
2023-04-22T11:35:08.288Z,49056.00
2023-04-22T11:36:08.221Z,43168.00
2023-04-22T11:37:08.350Z,42656.00
2023-04-22T11:38:08.082Z,38240.00
2023-04-22T11:39:08.038Z,59360.00
2023-04-22T11:40:28.099Z,65728.00
2023-04-22T11:42:08.008Z,83104.00
2023-04-22T11:43:07.799Z,92928.00
2023-04-22T11:44:08.107Z,86688.00
2023-04-22T11:45:07.600Z,91616.00
2023-04-22T11:46:07.592Z,46624.00
2023-04-22T11:47:07.489Z,83424.00
2023-04-22T11:48:07.397Z,83680.00
2023-04-22T11:49:07.359Z,86880.00
2023-04-22T11:50:07.262Z,86944.00
2023-04-22T11:51:10.627Z,65408.00
2023-04-22T11:52:07.133Z,76736.00
2023-04-22T11:53:07.067Z,39648.00
2023-04-22T11:54:07.000Z,70400.00
2023-04-22T11:55:06.934Z,87104.00
2023-04-22T11:56:06.880Z,83648.00
2023-04-22T11:57:06.823Z,86240.00
2023-04-22T11:58:49.434Z,83680.00
2023-04-22T11:59:49.391Z,81472.00
2023-04-22T12:00:49.350Z,78816.00
2023-04-22T12:01:49.277Z,79264.00
2023-04-22T12:02:49.246Z,85952.00
2023-04-22T12:03:49.326Z,90272.00
2023-04-22T12:04:49.087Z,90048.00
2023-04-22T12:05:49.018Z,89536.00
2023-04-22T12:06:48.943Z,89728.00
2023-04-22T12:07:48.837Z,90784.00
2023-04-22T12:08:48.777Z,92640.00
2023-04-22T12:09:48.710Z,92192.00
2023-04-22T12:10:48.701Z,91424.00
2023-04-22T12:11:48.587Z,88256.00
2023-04-22T12:12:49.330Z,87520.00
2023-04-22T12:13:48.459Z,85344.00
2023-04-22T12:14:48.403Z,85280.00
2023-04-22T12:15:48.381Z,82688.00
2023-04-22T12:16:48.311Z,73824.00
2023-04-22T12:17:48.286Z,56000.00
2023-04-22T12:18:48.272Z,25440.00
2023-04-22T12:19:48.072Z,61376.00
2023-04-22T12:20:48.046Z,74336.00
2023-04-22T12:21:47.951Z,76704.00
2023-04-22T12:22:47.890Z,78048.00
2023-04-22T12:23:47.822Z,78080.00
2023-04-22T12:24:47.765Z,77280.00
2023-04-22T12:25:48.095Z,78944.00
2023-04-22T12:26:47.633Z,78176.00
2023-04-22T12:27:47.596Z,77248.00
2023-04-22T12:28:47.516Z,77376.00
2023-04-22T12:33:52.176Z,75936.00
2023-04-22T12:34:50.640Z,76608.00
2023-04-22T12:36:33.503Z,54560.00
2023-04-22T12:37:33.179Z,64480.00
2023-04-22T12:38:33.122Z,62080.00
2023-04-22T12:39:33.051Z,59424.00
2023-04-22T12:40:32.997Z,18720.00
2023-04-22T12:42:33.015Z,15260.00
2023-04-22T12:43:32.800Z,16896.00
2023-04-22T12:44:32.743Z,19232.00
2023-04-22T12:45:32.678Z,20032.00
2023-04-22T12:46:32.669Z,21280.00
2023-04-22T12:47:32.604Z,25568.00
2023-04-22T12:48:32.538Z,72224.00
2023-04-22T12:49:32.421Z,54592.00
2023-04-22T12:50:32.366Z,67392.00
2023-04-22T12:51:32.294Z,65056.00
2023-04-22T12:52:32.246Z,62848.00
2023-04-22T12:53:32.576Z,66080.00
2023-04-22T12:54:33.518Z,62336.00
2023-04-22T12:55:32.074Z,66528.00
2023-04-22T12:56:31.979Z,24224.00
2023-04-22T12:57:31.913Z,16864.00
2023-04-22T12:58:31.852Z,16704.00
2023-04-22T12:59:31.784Z,13860.00
2023-04-22T13:00:31.723Z,10320.00
2023-04-22T13:01:33.208Z,7464.00
2023-04-22T13:02:31.752Z,5736.00
2023-04-22T13:03:31.655Z,4788.00
2023-04-22T13:04:31.564Z,4088.00
2023-04-22T13:06:15.301Z,2908.00
2023-04-22T13:07:14.629Z,2572.00
2023-04-22T13:08:13.780Z,2588.00
2023-04-22T13:13:27.529Z,6500.00
2023-04-22T13:16:00.201Z,8020.00
2023-04-22T13:17:00.125Z,7656.00
2023-04-22T13:18:00.052Z,7720.00
2023-04-22T13:18:59.957Z,7660.00
2023-04-22T13:19:59.897Z,7652.00
2023-04-22T13:20:59.826Z,8284.00
2023-04-22T13:21:59.752Z,9564.00
2023-04-22T13:22:59.692Z,10052.00
2023-04-22T13:23:59.627Z,7616.00
2023-04-22T13:24:59.540Z,6188.00
2023-04-22T13:25:59.487Z,5620.00
2023-04-22T13:26:59.396Z,5764.00
2023-04-22T13:27:59.324Z,5696.00
2023-04-22T13:29:02.025Z,5236.00
2023-04-22T13:29:59.538Z,4988.00
2023-04-22T13:33:16.553Z,4156.00
2023-04-22T13:34:16.494Z,4080.00
2023-04-22T13:35:16.430Z,3916.00
2023-04-22T13:36:16.381Z,3376.00
2023-04-22T13:38:04.015Z,2416.00
2023-04-22T13:39:56.213Z,1568.00
2023-04-22T13:40:56.114Z,1244.00
2023-04-22T13:41:56.043Z,1028.00
2023-04-22T13:42:55.970Z,916.00
2023-04-22T13:43:55.896Z,952.00
2023-04-22T13:44:55.827Z,1116.00
2023-04-22T13:45:55.788Z,1376.00
2023-04-22T13:46:55.683Z,1664.00
2023-04-22T13:47:55.657Z,1864.00
2023-04-22T13:54:55.104Z,1896.00
2023-04-22T13:55:57.682Z,1748.00
2023-04-22T13:56:54.990Z,1584.00
2023-04-22T13:57:54.889Z,1496.00
2023-04-22T13:58:55.015Z,1500.00
2023-04-22T13:59:54.744Z,1532.00
2023-04-22T14:00:54.680Z,1552.00
2023-04-22T14:01:54.594Z,1552.00
2023-04-22T14:02:54.608Z,1516.00
2023-04-22T14:03:54.533Z,1476.00
2023-04-22T14:04:54.372Z,1424.00
2023-04-22T14:05:54.302Z,1392.00
2023-04-22T14:06:54.234Z,1416.00
2023-04-22T14:07:54.168Z,1516.00
2023-04-22T14:08:54.081Z,1616.00
2023-04-22T14:09:54.009Z,1628.00
2023-04-22T14:10:54.199Z,1592.00
2023-04-22T14:11:54.025Z,1624.00
2023-04-22T14:12:53.789Z,1672.00
2023-04-22T14:13:54.063Z,1644.00
2023-04-22T14:16:18.633Z,1736.00
2023-04-22T14:17:18.552Z,1764.00
2023-04-22T14:18:18.465Z,1900.00
2023-04-22T14:19:18.423Z,1844.00
2023-04-22T14:20:18.706Z,1860.00
2023-04-22T14:21:18.241Z,1932.00
2023-04-22T14:22:18.170Z,1932.00
2023-04-22T14:23:18.312Z,1916.00
2023-04-22T14:24:18.059Z,1884.00
2023-04-22T14:25:18.291Z,1816.00
2023-04-22T14:26:17.875Z,1800.00
2023-04-22T14:27:17.862Z,1824.00
2023-04-22T14:28:17.730Z,1888.00
2023-04-22T14:29:17.691Z,2020.00
2023-04-22T14:31:17.557Z,2216.00
2023-04-22T14:32:18.636Z,2284.00
2023-04-22T14:33:17.355Z,2352.00
2023-04-22T14:34:17.321Z,2456.00
2023-04-22T14:36:17.177Z,2616.00
2023-04-22T14:37:17.145Z,2672.00
2023-04-22T14:38:17.031Z,2644.00
2023-04-22T14:39:16.948Z,2644.00
2023-04-22T14:40:16.901Z,2828.00
2023-04-22T14:41:16.815Z,3080.00
2023-04-22T14:42:16.741Z,3292.00
2023-04-22T14:43:16.984Z,3388.00
2023-04-22T14:45:16.712Z,3312.00
2023-04-22T14:46:16.480Z,2916.00
2023-04-22T14:47:16.357Z,2744.00
2023-04-22T14:48:16.293Z,2848.00
2023-04-22T14:49:16.211Z,2996.00
2023-04-22T14:50:16.150Z,3200.00
2023-04-22T14:51:16.292Z,3544.00
2023-04-22T14:52:16.251Z,3700.00
2023-04-22T14:53:16.131Z,3948.00
2023-04-22T14:54:15.804Z,3932.00
2023-04-22T14:55:23.193Z,3508.00
2023-04-22T14:56:15.659Z,3220.00
2023-04-22T14:57:15.587Z,3112.00
2023-04-22T14:58:15.509Z,3088.00
2023-04-22T14:59:15.456Z,3168.00
2023-04-22T15:00:15.376Z,3164.00
2023-04-22T15:01:15.329Z,3240.00
2023-04-22T15:02:15.258Z,3264.00
2023-04-22T15:03:15.259Z,3136.00
2023-04-22T15:04:15.148Z,3052.00
2023-04-22T15:05:15.050Z,3084.00
2023-04-22T15:06:14.926Z,3240.00
2023-04-22T15:07:14.858Z,3412.00
2023-04-22T15:08:14.803Z,3440.00
2023-04-22T15:09:14.710Z,3600.00
2023-04-22T15:10:14.681Z,3848.00
2023-04-22T15:11:14.576Z,3880.00
2023-04-22T15:12:14.474Z,3944.00
2023-04-22T15:13:14.413Z,3836.00
2023-04-22T15:14:16.050Z,3752.00
2023-04-22T15:15:14.274Z,3920.00
2023-04-22T15:16:14.201Z,4088.00
2023-04-22T15:17:14.110Z,3792.00
2023-04-22T15:18:14.039Z,3636.00
2023-04-22T15:19:13.979Z,2988.00
2023-04-22T15:20:14.034Z,2672.00
2023-04-22T15:21:13.919Z,2212.00
2023-04-22T15:22:13.742Z,2008.00
2023-04-22T15:23:13.709Z,1968.00
2023-04-22T15:24:13.596Z,1992.00
2023-04-22T15:25:14.029Z,2172.00
2023-04-22T15:26:13.510Z,2348.00
2023-04-22T15:27:13.417Z,2696.00
2023-04-22T15:28:13.306Z,3084.00
2023-04-22T15:29:13.241Z,3100.00
2023-04-22T15:30:13.200Z,3064.00
2023-04-22T15:31:13.161Z,3248.00
2023-04-22T15:32:13.004Z,3456.00
2023-04-22T15:33:13.011Z,3516.00
2023-04-22T15:34:12.859Z,3596.00
2023-04-22T15:35:12.791Z,3652.00
2023-04-22T15:36:12.779Z,3724.00
2023-04-22T15:37:13.552Z,3648.00
2023-04-22T15:38:12.840Z,3608.00
2023-04-22T15:39:12.587Z,3776.00
2023-04-22T15:40:12.419Z,3868.00
2023-04-22T15:41:12.378Z,3988.00
2023-04-22T15:42:12.320Z,3888.00
2023-04-22T15:43:12.578Z,3888.00
2023-04-22T15:44:13.014Z,4120.00
2023-04-22T15:45:12.043Z,4212.00
2023-04-22T15:46:12.176Z,4552.00
2023-04-22T15:47:12.196Z,4596.00
2023-04-22T15:48:11.845Z,4756.00
2023-04-22T15:49:11.953Z,4956.00
2023-04-22T15:50:11.680Z,4764.00
2023-04-22T15:51:11.623Z,4332.00
2023-04-22T15:52:11.541Z,3960.00
2023-04-22T15:53:11.458Z,3724.00
2023-04-22T15:54:11.405Z,3292.00
2023-04-22T15:55:11.311Z,2936.00
2023-04-22T15:56:11.243Z,2824.00
2023-04-22T15:57:11.210Z,2832.00
2023-04-22T15:59:11.029Z,2716.00
2023-04-22T16:00:13.046Z,2452.00
2023-04-22T16:01:18.877Z,2240.00
2023-04-22T16:02:10.977Z,2144.00
2023-04-22T16:03:10.983Z,2164.00
2023-04-22T16:04:10.862Z,2204.00
2023-04-22T16:05:10.580Z,2096.00
2023-04-22T16:06:10.545Z,1956.00
2023-04-22T16:07:10.472Z,1864.00
2023-04-22T16:08:10.372Z,1892.00
2023-04-22T16:09:10.290Z,2032.00
2023-04-22T16:10:10.212Z,2232.00
2023-04-22T16:11:10.141Z,2412.00
2023-04-22T16:12:10.073Z,2424.00
2023-04-22T16:13:09.991Z,2448.00
2023-04-22T16:14:09.917Z,2496.00
2023-04-22T16:15:09.848Z,2592.00
2023-04-22T16:16:10.024Z,2756.00
2023-04-22T16:17:09.705Z,3112.00
2023-04-22T16:18:09.624Z,3344.00
2023-04-22T16:19:09.571Z,3432.00
2023-04-22T16:20:09.516Z,3040.00
2023-04-22T16:21:09.704Z,3040.00
2023-04-22T16:22:09.369Z,3164.00
2023-04-22T16:23:09.253Z,3488.00
2023-04-22T16:24:09.223Z,3368.00
2023-04-22T16:25:09.111Z,3216.00
2023-04-22T16:26:09.049Z,3096.00
2023-04-22T16:27:08.994Z,2956.00
2023-04-22T16:28:08.889Z,2756.00
2023-04-22T16:29:08.912Z,2660.00
2023-04-22T16:30:08.744Z,2616.00
2023-04-22T16:31:08.713Z,2612.00
2023-04-22T16:32:08.613Z,2656.00
2023-04-22T16:33:08.615Z,2692.00
2023-04-22T16:34:08.486Z,2772.00
2023-04-22T16:35:08.392Z,2892.00
2023-04-22T16:36:08.302Z,3004.00
2023-04-22T16:37:08.758Z,3164.00
2023-04-22T16:38:08.153Z,3448.00
2023-04-22T16:39:08.086Z,3724.00
2023-04-22T16:40:08.051Z,3796.00
2023-04-22T16:41:07.975Z,3628.00
2023-04-22T16:42:07.895Z,3364.00
2023-04-22T16:43:08.236Z,3084.00
2023-04-22T16:44:07.713Z,2872.00
2023-04-22T16:45:07.672Z,2736.00
2023-04-22T16:46:07.636Z,2620.00
2023-04-22T16:47:07.495Z,2532.00
2023-04-22T16:48:07.494Z,2520.00
2023-04-22T16:49:10.290Z,2496.00
2023-04-22T16:50:07.278Z,2500.00
2023-04-22T16:51:07.250Z,2560.00
2023-04-22T16:52:07.129Z,2624.00
2023-04-22T16:53:07.083Z,2612.00
2023-04-22T16:54:07.025Z,2520.00
2023-04-22T16:55:06.942Z,2528.00
2023-04-22T16:56:07.060Z,2540.00
2023-04-22T16:57:06.790Z,2544.00
2023-04-22T16:58:06.725Z,2492.00
2023-04-22T16:59:06.817Z,2448.00
2023-04-22T17:00:06.538Z,2404.00
2023-04-22T17:01:06.567Z,2352.00
2023-04-22T17:02:06.670Z,2264.00
2023-04-22T17:03:06.474Z,2188.00
2023-04-22T17:04:06.458Z,2100.00
2023-04-22T17:05:06.208Z,2032.00
2023-04-22T17:06:06.134Z,1976.00
2023-04-22T17:07:06.050Z,1944.00
2023-04-22T17:08:06.155Z,1908.00
2023-04-22T17:09:05.918Z,1856.00
2023-04-22T17:10:05.843Z,1772.00
2023-04-22T17:11:05.728Z,1704.00
2023-04-22T17:12:05.698Z,1652.00
2023-04-22T17:13:05.624Z,1604.00